Flight Track Log - Related Links

Times and Time Zones

All times are in EDT time to prevent confusion due to time zone crossing. See the N668DN flight status page for this flight to view local times or setup timezone preferences in your user account.

Time Position Orientation Groundspeed Altitude Reporting Facility
EDT Latitude Longitude Course Direction KTS MPH feet Rate Location/Type
Fri 10:18:30 AM 33.4333 -111.9833 20° North 178 205 2,200  Level Phoenix TRACON
Fri 10:19:36 AM 33.4333 -111.9000 90° East 228 262 4,300 2,333 Climbing Phoenix TRACON
Fri 10:20:36 AM 33.4833 -111.8500 40° Northeast 278 320 7,100 2,885 Climbing Phoenix TRACON
Fri 10:21:00 AM 33.7910 -111.8466 20° North  Level FlightAware Approximate
Fri 10:21:47 AM 33.5653 -111.8292 12° North 276 318 10,600  Level Albuquerque Center
Fri 10:22:00 AM 33.9105 -111.7944 20° North  Level FlightAware Approximate
Fri 10:22:49 AM 33.6556 -111.8103 10° North 313 360 12,200  Level Albuquerque Center
Fri 10:23:00 AM 34.0300 -111.7421 20° North  Level FlightAware Approximate
Fri 10:23:50 AM 33.7583 -111.7892 10° North 362 417 14,700  Level Albuquerque Center
Fri 10:24:52 AM 33.8639 -111.7675 10° North 377 434 17,200 2,177 Climbing Albuquerque Center
Fri 10:25:54 AM 33.9722 -111.7461 North 390 449 19,200 1,902 Climbing Albuquerque Center
Fri 10:26:55 AM 34.0831 -111.7039 18° North 413 475 21,100 1,902 Climbing Albuquerque Center
Fri 10:27:57 AM 34.2144 -111.6531 18° North 434 499 23,100 1,742 Climbing Albuquerque Center
Fri 10:28:59 AM 34.3344 -111.6111 16° North 445 512 24,700 1,512 Climbing Albuquerque Center
Fri 10:30:00 AM 34.4589 -111.5650 17° North 460 529 26,200 1,366 Climbing Albuquerque Center
Fri 10:31:02 AM 34.5769 -111.4906 27° Northeast 484 557 27,500 1,258 Climbing Albuquerque Center
Fri 10:32:04 AM 34.6731 -111.3661 47° Northeast 501 577 28,800 1,659 Climbing Albuquerque Center
Fri 10:33:05 AM 34.7872 -111.2147 47° Northeast 505 581 30,900 1,561 Climbing Albuquerque Center
Fri 10:34:07 AM 34.8831 -111.0903 47° Northeast 503 579 32,000 1,016 Climbing Albuquerque Center
Fri 10:35:09 AM 34.9794 -110.9603 48° Northeast 514 592 33,000 488 Climbing Albuquerque Center
Fri 10:36:10 AM 35.0811 -110.8275 47° Northeast 513 590 33,000  Level Albuquerque Center
Fri 10:37:12 AM 35.1725 -110.7028 48° Northeast 513 590 33,000  Level Albuquerque Center
Fri 10:38:14 AM 35.2831 -110.5592 47° Northeast 518 596 33,000  Level Albuquerque Center
Fri 10:39:16 AM 35.3758 -110.4325 48° Northeast 521 600 33,000  Level Albuquerque Center
Fri 10:40:17 AM 35.4856 -110.2864 47° Northeast 521 600 33,000  Level Albuquerque Center
Fri 10:41:19 AM 35.5792 -110.1617 47° Northeast 519 597 33,000  Level Albuquerque Center
Fri 10:42:21 AM 35.6864 -110.0175 47° Northeast 514 592 33,000  Level Albuquerque Center
Fri 10:43:23 AM 35.7783 -109.8939 47° Northeast 510 587 33,000  Level Albuquerque Center
Fri 10:44:25 AM 35.8842 -109.7475 48° Northeast 510 587 33,000  Level Albuquerque Center
Fri 10:44:56 AM 35.9300 -109.6869 47° Northeast 511 588 33,000  Level Denver Center
Fri 10:45:26 AM 35.9758 -109.6236 48° Northeast 510 587 33,000  Level Albuquerque Center
Fri 10:45:58 AM 36.0200 -109.5622 48° Northeast 507 583 33,000  Level Denver Center
Fri 10:47:00 AM 36.1272 -109.4169 48° Northeast 507 583 33,000  Level Denver Center
Fri 10:48:02 AM 36.2183 -109.2900 48° Northeast 510 587 33,000  Level Denver Center
Fri 10:49:04 AM 36.3108 -109.1628 48° Northeast 513 590 33,000  Level Denver Center
Fri 10:50:06 AM 36.4175 -109.0136 48° Northeast 512 589 33,000  Level Denver Center
Fri 10:51:08 AM 36.5092 -108.8867 48° Northeast 511 588 33,000  Level Denver Center
Fri 10:52:10 AM 36.6147 -108.7389 48° Northeast 510 587 33,000  Level Denver Center
Fri 10:53:12 AM 36.7047 -108.6111 49° Northeast 511 588 33,000  Level Denver Center
Fri 10:54:14 AM 36.8075 -108.4647 49° Northeast 504 580 33,000  Level Denver Center
Fri 10:55:16 AM 36.8958 -108.3403 48° Northeast 500 575 33,000  Level Denver Center
Fri 10:56:30 AM 36.9964 -108.1956 49° Northeast 494 568 33,000  Level Denver Center
Fri 10:57:33 AM 37.0967 -108.0508 49° Northeast 493 567 33,000  Level Denver Center
Fri 10:58:35 AM 37.1967 -107.9089 48° Northeast 487 560 33,000  Level Denver Center
Fri 10:59:37 AM 37.2825 -107.7839 49° Northeast 492 566 33,000  Level Denver Center
Fri 11:00:39 AM 37.3814 -107.6406 49° Northeast 488 562 33,000  Level Denver Center
Fri 11:01:41 AM 37.4661 -107.5172 49° Northeast 486 559 33,000  Level Denver Center
Fri 11:02:43 AM 37.5647 -107.3742 49° Northeast 484 557 33,000  Level Denver Center
Fri 11:03:45 AM 37.6475 -107.2497 50° Northeast 482 555 33,000  Level Denver Center
Fri 11:04:47 AM 37.7464 -107.1042 49° Northeast 487 560 33,000  Level Denver Center
Fri 11:05:49 AM 37.8364 -106.9706 50° Northeast 485 558 33,000  Level Denver Center
Fri 11:06:51 AM 37.9200 -106.8481 49° Northeast 481 554 33,000  Level Denver Center
Fri 11:07:53 AM 38.0019 -106.7239 50° Northeast 480 552 33,000  Level Denver Center
Fri 11:08:55 AM 38.0989 -106.5781 50° Northeast 483 556 33,000  Level Denver Center
Fri 11:09:57 AM 38.1881 -106.4450 50° Northeast 482 555 33,000  Level Denver Center
Fri 11:10:59 AM 38.2747 -106.3139 50° Northeast 484 557 33,000  Level Denver Center
Fri 11:12:01 AM 38.3603 -106.1828 50° Northeast 483 556 33,000  Level Denver Center
Fri 11:13:03 AM 38.4589 -106.0333 50° Northeast 482 555 33,000  Level Denver Center
Fri 11:14:17 AM 38.5458 -105.9008 50° Northeast 478 550 33,000  Level Denver Center
Fri 11:15:20 AM 38.6447 -105.7458 51° Northeast 478 550 33,000  Level Denver Center
Fri 11:16:22 AM 38.7306 -105.6144 50° Northeast 478 550 33,000  Level Denver Center
Fri 11:17:24 AM 38.8158 -105.4814 51° Northeast 479 551 33,000  Level Denver Center
Fri 11:18:26 AM 38.9150 -105.3256 51° Northeast 478 550 33,000  Level Denver Center
Fri 11:19:28 AM 39.0008 -105.1922 50° Northeast 479 551 33,000  Level Denver Center
Fri 11:20:30 AM 39.0853 -105.0592 51° Northeast 477 549 33,000  Level Denver Center
Fri 11:21:32 AM 39.1708 -104.9247 51° Northeast 481 554 33,000  Level Denver Center
Fri 11:22:34 AM 39.2569 -104.7892 51° Northeast 483 556 33,000  Level Denver Center
Fri 11:23:36 AM 39.3394 -104.6553 51° Northeast 476 548 33,000  Level Denver Center
Fri 11:24:38 AM 39.4378 -104.4986 51° Northeast 483 556 33,000  Level Denver Center
Fri 11:25:40 AM 39.5219 -104.3631 51° Northeast 486 559 33,000  Level Denver Center
Fri 11:26:42 AM 39.6064 -104.2275 51° Northeast 484 557 33,000  Level Denver Center
Fri 11:27:44 AM 39.6906 -104.0892 52° Northeast 485 558 33,000  Level Denver Center
Fri 11:28:46 AM 39.7742 -103.9519 52° Northeast 482 555 33,000  Level Denver Center
Fri 11:29:48 AM 39.8589 -103.8131 52° Northeast 486 559 33,000  Level Denver Center
Fri 11:30:50 AM 39.9575 -103.6533 51° Northeast 481 554 33,000  Level Denver Center
Fri 11:31:52 AM 40.0406 -103.5147 52° Northeast 482 555 33,000  Level Denver Center
Fri 11:32:54 AM 40.1244 -103.3764 52° Northeast 482 555 33,000  Level Denver Center
Fri 11:33:57 AM 40.2089 -103.2369 52° Northeast 484 557 33,000  Level Denver Center
Fri 11:34:59 AM 40.2917 -103.0969 52° Northeast 482 555 33,000  Level Denver Center
Fri 11:36:01 AM 40.3733 -102.9572 52° Northeast 479 551 33,000  Level Denver Center
Fri 11:37:03 AM 40.4575 -102.8175 52° Northeast 483 556 33,000  Level Denver Center
Fri 11:38:05 AM 40.5539 -102.6533 52° Northeast 483 556 33,000  Level Denver Center
Fri 11:39:07 AM 40.6367 -102.5119 52° Northeast 482 555 33,000  Level Denver Center
Fri 11:40:09 AM 40.7147 -102.3786 52° Northeast 480 552 33,000  Level Denver Center
Fri 11:41:11 AM 40.8058 -102.2214 53° Northeast 482 555 33,000  Level Denver Center
Fri 11:42:25 AM 40.8842 -102.0864 52° Northeast 483 556 33,000  Level Denver Center
Fri 11:43:27 AM 40.9886 -101.9044 53° Northeast 486 559 33,000  Level Denver Center
Fri 11:44:29 AM 41.0661 -101.7683 53° Northeast 483 556 33,000  Level Denver Center
Fri 11:45:31 AM 41.1575 -101.6089 53° Northeast 485 558 33,000  Level Denver Center
Fri 11:46:33 AM 41.2344 -101.4728 53° Northeast 481 554 33,000  Level Denver Center
Fri 11:47:36 AM 41.3236 -101.3133 53° Northeast 480 552 33,000  Level Denver Center
Fri 11:48:38 AM 41.4019 -101.1761 53° Northeast 482 555 33,000  Level Denver Center
Fri 11:49:40 AM 41.4911 -101.0150 54° Northeast 482 555 33,000  Level Denver Center
Fri 11:50:42 AM 41.5669 -100.8789 53° Northeast 478 550 33,000  Level Denver Center
Fri 11:51:43 AM 41.6303 -100.7650 53° Northeast 478 550 33,000  Level Denver Center
Fri 11:52:58 AM 41.7306 -100.5822 54° Northeast 476 548 33,000  Level Denver Center
Fri 11:54:01 AM 41.8317 -100.3972 54° Northeast 480 552 33,000  Level Denver Center
Fri 11:55:02 AM 41.9067 -100.2583 54° Northeast 479 551 33,000  Level Denver Center
Fri 11:56:12 AM 41.9864 -100.1147 53° Northeast 478 550 33,000  Level Minneapolis Center
Fri 11:57:06 AM 42.0669 -99.9625 54° Northeast 473 544 33,000  Level Denver Center
Fri 11:58:09 AM 42.1400 -99.8269 54° Northeast 469 540 33,000  Level Denver Center
Fri 11:59:11 AM 42.2142 -99.6878 54° Northeast 463 533 33,000  Level Denver Center
Fri 12:00:13 PM 42.3050 -99.5153 55° Northeast 467 537 33,000  Level Denver Center
Fri 12:01:34 PM 42.3808 -99.3739 54° Northeast 465 535 33,000  Level Minneapolis Center
Fri 12:02:37 PM 42.4861 -99.1733 55° Northeast 467 537 33,000  Level Minneapolis Center
Fri 12:03:39 PM 42.5614 -99.0317 54° Northeast 464 534 33,000  Level Minneapolis Center
Fri 12:04:41 PM 42.6356 -98.8867 55° Northeast 465 535 33,000  Level Minneapolis Center
Fri 12:05:43 PM 42.7106 -98.7414 55° Northeast 467 537 33,000  Level Minneapolis Center
Fri 12:06:45 PM 42.7853 -98.5967 55° Northeast 467 537 33,000  Level Minneapolis Center
Fri 12:07:46 PM 42.8603 -98.4500 55° Northeast 470 541 33,000  Level Minneapolis Center
Fri 12:08:48 PM 42.9472 -98.2811 55° Northeast 471 542 33,000  Level Minneapolis Center
Fri 12:09:50 PM 43.0217 -98.1350 55° Northeast 471 542 33,000  Level Minneapolis Center
Fri 12:10:52 PM 43.0808 -98.0167 56° Northeast 473 544 33,000  Level Minneapolis Center
Fri 12:12:00 PM 43.1604 -97.8559 56° Northeast  Level FlightAware Approximate
Fri 12:13:08 PM 43.2583 -97.6622 56° Northeast 471 542 33,000  Level Minneapolis Center
Fri 12:14:10 PM 43.3175 -97.5428 56° Northeast 473 544 33,000  Level Minneapolis Center
Fri 12:15:12 PM 43.4047 -97.3647 56° Northeast 471 542 33,000  Level Minneapolis Center
Fri 12:16:14 PM 43.4931 -97.1858 56° Northeast 472 543 33,000  Level Minneapolis Center
Fri 12:17:16 PM 43.5661 -97.0375 56° Northeast 471 542 33,000  Level Minneapolis Center
Fri 12:18:18 PM 43.6244 -96.9172 56° Northeast 473 544 33,000  Level Minneapolis Center
Fri 12:19:20 PM 43.7117 -96.7375 56° Northeast 471 542 33,000  Level Minneapolis Center
Fri 12:20:22 PM 43.7853 -96.5842 56° Northeast 480 552 33,000  Level Minneapolis Center
Fri 12:21:24 PM 43.8733 -96.4003 56° Northeast 481 554 33,000 -532 Level Minneapolis Center
Fri 12:22:26 PM 43.9461 -96.2469 57° Northeast 482 555 31,900 -1,065 Descending Minneapolis Center
Fri 12:23:28 PM 44.0178 -96.0956 57° Northeast 480 552 30,800 -976 Descending Minneapolis Center
Fri 12:24:29 PM 44.0753 -95.9750 56° Northeast 479 551 29,900 -976 Descending Minneapolis Center
Fri 12:25:31 PM 44.1742 -95.7658 57° Northeast 468 539 28,800 -968 Descending Minneapolis Center
Fri 12:26:33 PM 44.2431 -95.6164 57° Northeast 463 533 27,900 -823 Descending Minneapolis Center
Fri 12:27:35 PM 44.3117 -95.4669 57° Northeast 459 528 27,100 -1,059 Descending Minneapolis Center
Fri 12:28:49 PM 44.3811 -95.3194 57° Northeast 457 526 25,500 -1,927 Descending Minneapolis Center
Fri 12:29:52 PM 44.4594 -95.1450 58° Northeast 443 510 22,700 -2,640 Descending Minneapolis Center
Fri 12:30:54 PM 44.5100 -94.9597 69° East 428 493 20,000 -2,129 Descending Minneapolis Center
Fri 12:31:56 PM 44.5436 -94.8064 73° East 417 480 18,300 -1,694 Descending Minneapolis Center
Fri 12:32:58 PM 44.5781 -94.6567 72° East 408 470 16,500 -1,742 Descending Minneapolis Center
Fri 12:34:00 PM 44.6117 -94.5181 71° East 387 445 14,700 -1,694 Descending Minneapolis Center
Fri 12:35:02 PM 44.6433 -94.3792 72° East 377 434 13,000 -1,645 Descending Minneapolis Center
Fri 12:36:04 PM 44.6747 -94.2394 72° East 377 434 11,300 -968 Descending Minneapolis Center
Fri 12:37:06 PM 44.7100 -94.0825 72° East 353 406 11,000 -145 Descending Minneapolis Center
Fri 12:38:08 PM 44.7367 -93.9639 72° East 318 366 11,000  Level Minneapolis Center
Fri 12:39:10 PM 44.7625 -93.8458 73° East 316 364 11,000  Level Minneapolis Center
Fri 12:40:12 PM 44.7894 -93.7258 72° East 322 371 11,000 -484 Level Minneapolis Center
Fri 12:41:14 PM 44.8156 -93.6069 73° East 318 366 10,000 -1,065 Descending Minneapolis Center
Fri 12:42:16 PM 44.8411 -93.4897 73° East 313 360 8,800 -968 Descending Minneapolis Center
Fri 12:43:18 PM 44.8456 -93.3561 87° East 302 348 8,000 -387 Descending Minneapolis Center
Fri 12:44:20 PM 44.8047 -93.2547 120° Southeast 296 341 8,000 -484 Level Minneapolis Center
Fri 12:45:22 PM 44.7653 -93.1550 119° Southeast 276 318 7,000 -919 Descending Minneapolis Center
Fri 12:46:24 PM 44.7258 -93.0611 121° Southeast 276 318 6,100 -441 Descending Minneapolis Center
Fri 12:47:38 PM 44.7311 -92.9853 84° East 226 260 6,000 -81 Descending Minneapolis Center

Login

Don't have an account? Register now (free) for customized features, flight alerts, and more!